createdAt,value
2019-05-02T00:01:18.707Z,5.87
2019-05-02T00:03:47.227Z,6.70
2019-05-02T00:06:16.182Z,5.97
2019-05-02T00:08:44.851Z,6.00
2019-05-02T00:11:13.899Z,6.33
2019-05-02T00:13:42.439Z,5.90
2019-05-02T00:16:14.122Z,6.67
2019-05-02T00:18:41.138Z,5.97
2019-05-02T00:21:09.886Z,6.63
2019-05-02T00:23:38.425Z,6.87
2019-05-02T00:26:06.958Z,6.40
2019-05-02T00:28:35.456Z,6.60
2019-05-02T00:31:07.453Z,6.70
2019-05-02T00:33:35.867Z,6.60
2019-05-02T00:36:04.741Z,6.57
2019-05-02T00:38:37.889Z,6.83
2019-05-02T00:41:03.746Z,6.70
2019-05-02T00:43:34.467Z,7.40
2019-05-02T00:46:02.322Z,7.47
2019-05-02T00:48:37.845Z,7.30
2019-05-02T00:51:06.295Z,7.37
2019-05-02T00:53:34.693Z,6.00
2019-05-02T00:56:05.157Z,6.17
2019-05-02T00:58:33.195Z,6.53
2019-05-02T01:01:11.687Z,6.67
2019-05-02T01:03:41.802Z,5.67
2019-05-02T01:06:14.376Z,6.17
2019-05-02T01:08:40.445Z,6.67
2019-05-02T01:11:09.285Z,6.63
2019-05-02T01:13:37.696Z,6.40
2019-05-02T01:16:06.172Z,6.23
2019-05-02T01:18:37.300Z,6.63
2019-05-02T01:21:04.699Z,7.00
2019-05-02T01:23:33.120Z,6.90
2019-05-02T01:26:01.511Z,6.77
2019-05-02T01:28:54.213Z,6.73
2019-05-02T01:31:23.943Z,6.73
2019-05-02T01:33:53.994Z,6.80
2019-05-02T01:36:29.500Z,6.80
2019-05-02T01:38:57.892Z,6.90
2019-05-02T01:41:29.114Z,6.40
2019-05-02T01:44:00.050Z,6.67
2019-05-02T01:46:26.527Z,6.90
2019-05-02T01:48:54.920Z,7.30
2019-05-02T01:51:23.437Z,6.87
2019-05-02T01:53:51.865Z,6.30
2019-05-02T01:56:20.249Z,5.97
2019-05-02T01:58:48.633Z,6.33
2019-05-02T02:01:21.399Z,5.63
2019-05-02T02:03:49.112Z,6.67
2019-05-02T02:06:17.538Z,6.50
2019-05-02T02:08:45.913Z,6.47
2019-05-02T02:11:14.453Z,6.73
2019-05-02T02:13:42.838Z,6.30
2019-05-02T02:16:11.221Z,6.60
2019-05-02T02:18:41.529Z,6.60
2019-05-02T02:21:25.464Z,6.17
2019-05-02T02:23:54.427Z,6.70
2019-05-02T02:26:24.180Z,6.70
2019-05-02T02:28:52.621Z,6.63
2019-05-02T02:31:21.964Z,7.07
2019-05-02T02:33:50.630Z,6.27
2019-05-02T02:36:30.021Z,7.00
2019-05-02T02:38:49.283Z,6.67
2019-05-02T02:41:17.657Z,6.63
2019-05-02T02:43:47.701Z,6.77
2019-05-02T02:46:20.482Z,7.13
2019-05-02T02:48:48.884Z,7.73
2019-05-02T02:51:23.816Z,6.67
2019-05-02T02:53:47.495Z,6.67
2019-05-02T02:56:15.944Z,6.87
2019-05-02T02:58:46.053Z,7.13
2019-05-02T03:01:14.410Z,6.47
2019-05-02T03:03:42.882Z,6.37
2019-05-02T03:06:11.315Z,6.47
2019-05-02T03:08:46.078Z,6.23
2019-05-02T03:11:22.298Z,6.23
2019-05-02T03:13:53.116Z,6.07
2019-05-02T03:16:24.258Z,6.53
2019-05-02T03:18:52.825Z,5.70
2019-05-02T03:21:22.501Z,6.00
2019-05-02T03:24:01.588Z,6.53
2019-05-02T03:28:35.055Z,6.60
2019-05-02T03:31:21.741Z,6.60
2019-05-02T03:33:51.607Z,6.80
2019-05-02T03:36:04.420Z,6.90
2019-05-02T03:38:35.265Z,9.50
2019-05-02T03:41:03.248Z,9.73
2019-05-02T03:43:31.915Z,8.83
2019-05-02T03:46:00.633Z,9.38
2019-05-02T03:48:29.010Z,7.87
2019-05-02T03:50:57.481Z,6.70
2019-05-02T03:53:27.700Z,6.67
2019-05-02T03:55:56.720Z,6.63
2019-05-02T03:58:25.409Z,9.67
2019-05-02T04:01:00.429Z,7.17
2019-05-02T04:03:25.245Z,6.70
2019-05-02T04:05:53.731Z,7.07
2019-05-02T04:08:22.702Z,6.70
2019-05-02T04:10:59.395Z,6.87
2019-05-02T04:13:30.149Z,7.07
2019-05-02T04:15:58.706Z,6.83
2019-05-02T04:18:27.247Z,7.47
2019-05-02T04:20:55.700Z,7.80
2019-05-02T04:23:27.741Z,8.17
2019-05-02T04:25:55.811Z,7.90
2019-05-02T04:28:25.135Z,7.33
2019-05-02T04:30:54.047Z,7.97
2019-05-02T04:33:22.574Z,7.60
2019-05-02T04:35:51.117Z,7.27
2019-05-02T04:38:24.501Z,7.07
2019-05-02T04:40:49.779Z,7.00
2019-05-02T04:43:18.511Z,7.00
2019-05-02T04:45:55.828Z,7.27
2019-05-02T04:48:18.402Z,6.80
2019-05-02T04:50:48.264Z,6.30
2019-05-02T04:53:18.857Z,7.43
2019-05-02T04:55:52.044Z,7.83
2019-05-02T04:58:27.637Z,7.43
2019-05-02T05:00:53.603Z,7.00
2019-05-02T05:03:21.129Z,8.27
2019-05-02T05:05:48.368Z,7.33
2019-05-02T05:08:26.053Z,7.90
2019-05-02T05:10:47.991Z,9.97
2019-05-02T05:13:21.595Z,10.77
2019-05-02T05:15:51.292Z,7.70
2019-05-02T05:18:17.700Z,8.03
2019-05-02T05:20:53.074Z,7.57
2019-05-02T05:23:21.313Z,8.50
2019-05-02T05:25:50.628Z,7.87
2019-05-02T05:28:20.087Z,8.03
2019-05-02T05:30:51.935Z,8.07
2019-05-02T05:33:18.674Z,8.40
2019-05-02T05:35:48.767Z,8.40
2019-05-02T05:38:18.182Z,8.50
2019-05-02T05:40:47.860Z,8.33
2019-05-02T05:43:20.333Z,8.13
2019-05-02T05:45:53.565Z,8.47
2019-05-02T05:48:18.406Z,7.90
2019-05-02T05:50:47.757Z,7.93
2019-05-02T05:53:17.380Z,8.20
2019-05-02T05:55:47.356Z,8.63
2019-05-02T05:58:18.524Z,8.63
2019-05-02T06:00:53.620Z,8.23
2019-05-02T06:03:17.895Z,8.70
2019-05-02T06:05:47.737Z,8.27
2019-05-02T06:08:18.425Z,8.53
2019-05-02T06:10:46.297Z,8.50
2019-05-02T06:13:14.691Z,8.57
2019-05-02T06:15:45.837Z,8.47
2019-05-02T06:18:13.232Z,9.27
2019-05-02T06:20:41.733Z,8.97
2019-05-02T06:23:10.150Z,9.60
2019-05-02T06:25:42.215Z,9.50
2019-05-02T06:28:09.058Z,10.03
2019-05-02T06:30:37.458Z,10.27
2019-05-02T06:33:05.947Z,9.70
2019-05-02T06:35:34.426Z,9.87
2019-05-02T06:38:02.836Z,10.73
2019-05-02T06:40:31.267Z,10.37
2019-05-02T06:43:04.319Z,11.37
2019-05-02T06:45:40.425Z,11.67
2019-05-02T06:48:17.189Z,13.13
2019-05-02T06:50:40.560Z,14.20
2019-05-02T06:53:11.057Z,13.63
2019-05-02T06:55:39.582Z,15.00
2019-05-02T06:58:08.348Z,14.80
2019-05-02T07:00:51.678Z,15.83
2019-05-02T07:03:10.235Z,16.80
2019-05-02T07:05:37.541Z,17.10
2019-05-02T07:08:11.196Z,18.57
2019-05-02T07:10:44.437Z,21.77
2019-05-02T07:13:10.819Z,23.37
2019-05-02T07:15:40.357Z,22.10
2019-05-02T07:18:12.100Z,23.90
2019-05-02T07:20:42.345Z,25.07
2019-05-02T07:23:15.875Z,25.03
2019-05-02T07:25:43.864Z,29.00
2019-05-02T07:28:10.960Z,30.27
2019-05-02T07:30:39.907Z,31.10
2019-05-02T07:33:08.318Z,31.93
2019-05-02T07:35:36.768Z,34.27
2019-05-02T07:38:05.174Z,34.87
2019-05-02T07:40:33.625Z,35.33
2019-05-02T07:43:02.512Z,36.77
2019-05-02T07:45:31.040Z,35.63
2019-05-02T07:48:01.433Z,37.87
2019-05-02T07:50:29.759Z,35.47
2019-05-02T07:52:58.235Z,36.70
2019-05-02T07:55:26.851Z,37.17
2019-05-02T07:57:55.263Z,40.40
2019-05-02T08:00:24.146Z,38.57
2019-05-02T08:02:52.709Z,40.33
2019-05-02T08:05:23.655Z,43.53
2019-05-02T08:07:53.340Z,41.93
2019-05-02T08:10:24.043Z,43.07
2019-05-02T08:12:52.459Z,42.10
2019-05-02T08:15:20.899Z,42.60
2019-05-02T08:17:53.803Z,43.87
2019-05-02T08:20:21.229Z,43.07
2019-05-02T08:22:50.419Z,41.87
2019-05-02T08:25:19.502Z,43.27
2019-05-02T08:27:52.340Z,42.23
2019-05-02T08:30:22.915Z,41.40
2019-05-02T08:32:51.457Z,44.00
2019-05-02T08:35:19.998Z,43.80
2019-05-02T08:37:48.422Z,42.40
2019-05-02T08:40:16.976Z,40.97
2019-05-02T08:42:45.531Z,43.93
2019-05-02T08:45:14.273Z,43.13
2019-05-02T08:47:42.844Z,43.90
2019-05-02T08:50:11.605Z,46.33
2019-05-02T08:52:42.300Z,45.87
2019-05-02T08:55:11.056Z,46.00
2019-05-02T08:57:39.595Z,42.70
2019-05-02T09:00:10.547Z,40.95
2019-05-02T09:02:41.620Z,41.75
2019-05-02T09:05:09.396Z,41.43
2019-05-02T09:07:39.368Z,42.10
2019-05-02T09:10:08.761Z,41.53
2019-05-02T09:12:43.679Z,41.28
2019-05-02T09:15:07.838Z,42.43
2019-05-02T09:17:38.855Z,41.50
2019-05-02T09:20:15.103Z,39.83
2019-05-02T09:22:38.221Z,43.83
2019-05-02T09:25:09.773Z,42.38
2019-05-02T09:27:38.210Z,43.15
2019-05-02T09:30:17.057Z,42.43
2019-05-02T09:32:43.338Z,41.55
2019-05-02T09:35:12.905Z,44.35
2019-05-02T09:37:42.042Z,42.20
2019-05-02T09:40:16.347Z,45.73
2019-05-02T09:42:42.952Z,42.62
2019-05-02T09:45:16.551Z,44.55
2019-05-02T09:47:56.271Z,44.40
2019-05-02T09:50:20.493Z,44.40
2019-05-02T09:52:47.412Z,44.58
2019-05-02T09:55:17.268Z,44.20
2019-05-02T09:57:47.254Z,42.70
2019-05-02T10:00:32.231Z,45.45
2019-05-02T10:02:59.132Z,44.18
2019-05-02T10:05:27.559Z,41.98
2019-05-02T10:07:57.538Z,40.08
2019-05-02T10:10:27.026Z,38.75
2019-05-02T10:12:55.443Z,38.88
2019-05-02T10:15:24.010Z,40.70
2019-05-02T10:17:52.501Z,39.30
2019-05-02T10:20:23.603Z,38.95
2019-05-02T10:22:52.949Z,35.83
2019-05-02T10:25:23.179Z,32.85
2019-05-02T10:27:52.328Z,37.10
2019-05-02T10:30:23.135Z,36.75
2019-05-02T10:32:56.009Z,37.13
2019-05-02T10:35:28.182Z,38.17
2019-05-02T10:37:53.543Z,35.30
2019-05-02T10:40:22.563Z,38.23
2019-05-02T10:42:52.249Z,36.03
2019-05-02T10:45:22.509Z,32.38
2019-05-02T10:47:52.686Z,35.63
2019-05-02T10:50:23.008Z,32.13
2019-05-02T10:52:52.712Z,32.08
2019-05-02T10:55:23.661Z,32.70
2019-05-02T10:57:52.676Z,32.28
2019-05-02T11:00:24.696Z,32.13
2019-05-02T11:03:11.957Z,32.45
2019-05-02T11:05:42.055Z,33.48
2019-05-02T11:08:11.989Z,32.55
2019-05-02T11:10:42.258Z,31.60
2019-05-02T11:13:18.204Z,30.48
2019-05-02T11:16:05.934Z,29.15
2019-05-02T11:18:54.439Z,31.17
2019-05-02T11:21:23.060Z,30.32
2019-05-02T11:23:52.619Z,31.82
2019-05-02T11:26:24.886Z,32.42
2019-05-02T11:28:52.107Z,31.57
2019-05-02T11:31:21.883Z,31.65
2019-05-02T11:33:52.726Z,32.23
2019-05-02T11:36:22.303Z,29.75
2019-05-02T11:39:00.399Z,31.17
2019-05-02T11:41:22.440Z,29.55
2019-05-02T11:43:54.140Z,29.35
2019-05-02T11:46:22.077Z,27.87
2019-05-02T11:48:56.295Z,30.50
2019-05-02T11:51:22.657Z,29.63
2019-05-02T11:53:52.618Z,30.08
2019-05-02T11:56:22.297Z,27.25
2019-05-02T11:58:52.630Z,26.68
2019-05-02T12:01:34.967Z,27.40
2019-05-02T12:03:52.580Z,28.02
2019-05-02T12:06:22.509Z,24.45
2019-05-02T12:08:52.641Z,25.88
2019-05-02T12:11:22.811Z,23.75
2019-05-02T12:13:52.903Z,26.20
2019-05-02T12:16:22.962Z,23.35
2019-05-02T12:18:53.583Z,23.85
2019-05-02T12:21:22.868Z,24.75
2019-05-02T12:23:52.752Z,24.37
2019-05-02T12:26:22.062Z,25.43
2019-05-02T12:28:52.678Z,23.18
2019-05-02T12:31:26.969Z,21.73
2019-05-02T12:33:56.482Z,22.73
2019-05-02T12:36:24.880Z,22.85
2019-05-02T12:38:53.427Z,21.25
2019-05-02T12:41:24.988Z,19.87
2019-05-02T12:43:52.499Z,19.42
2019-05-02T12:46:22.211Z,21.95
2019-05-02T12:48:51.989Z,20.10
2019-05-02T12:51:22.584Z,19.05
2019-05-02T12:53:52.862Z,19.02
2019-05-02T12:56:22.874Z,19.12
2019-05-02T12:58:52.991Z,17.48
2019-05-02T13:01:21.953Z,16.70
2019-05-02T13:03:52.314Z,17.95
2019-05-02T13:06:22.002Z,19.35
2019-05-02T13:08:52.529Z,19.65
2019-05-02T13:11:25.377Z,17.55
2019-05-02T13:13:53.874Z,18.52
2019-05-02T13:16:22.712Z,19.25
2019-05-02T13:18:57.150Z,18.05
2019-05-02T13:21:41.469Z,18.27
2019-05-02T13:24:07.444Z,18.52
2019-05-02T13:26:34.930Z,18.65
2019-05-02T13:29:03.446Z,18.82
2019-05-02T13:31:36.238Z,17.98
2019-05-02T13:34:15.866Z,19.25
2019-05-02T13:36:47.552Z,18.35
2019-05-02T13:39:34.685Z,19.15
2019-05-02T13:42:03.235Z,19.73
2019-05-02T13:44:35.723Z,20.12
2019-05-02T13:47:06.644Z,19.23
2019-05-02T13:49:35.148Z,19.12
2019-05-02T13:52:03.629Z,18.25
2019-05-02T13:54:33.168Z,18.52
2019-05-02T13:57:07.889Z,14.95
2019-05-02T13:59:33.619Z,14.87
2019-05-02T14:02:02.943Z,13.43
2019-05-02T14:04:32.659Z,15.48
2019-05-02T14:07:03.034Z,14.93
2019-05-02T14:09:35.518Z,16.60
2019-05-02T14:12:22.483Z,16.40
2019-05-02T14:14:51.896Z,15.68
2019-05-02T14:17:20.421Z,16.60
2019-05-02T14:19:48.922Z,15.50
2019-05-02T14:22:17.364Z,14.78
2019-05-02T14:24:45.872Z,14.40
2019-05-02T14:27:17.163Z,13.55
2019-05-02T14:29:44.700Z,14.00
2019-05-02T14:32:21.314Z,14.73
2019-05-02T14:34:47.464Z,13.18
2019-05-02T14:37:15.946Z,13.15
2019-05-02T14:39:46.236Z,12.40
2019-05-02T14:42:21.318Z,11.60
2019-05-02T14:45:04.303Z,11.35
2019-05-02T14:47:19.421Z,10.60
2019-05-02T14:49:45.256Z,9.90
2019-05-02T14:52:13.742Z,8.98
2019-05-02T14:54:46.478Z,9.53
2019-05-02T14:57:17.254Z,9.58
2019-05-02T14:59:50.293Z,9.93
2019-05-02T15:02:19.138Z,10.00
2019-05-02T15:04:48.980Z,9.95
2019-05-02T15:07:21.755Z,10.13
2019-05-02T15:09:47.599Z,10.20
2019-05-02T15:12:18.999Z,10.32
2019-05-02T15:14:49.264Z,10.00
2019-05-02T15:17:16.471Z,9.05
2019-05-02T15:19:44.906Z,10.32
2019-05-02T15:22:13.354Z,8.83
2019-05-02T15:24:42.400Z,8.35
2019-05-02T15:27:13.327Z,9.00
2019-05-02T15:29:41.972Z,7.92
2019-05-02T15:32:27.665Z,8.03
2019-05-02T15:35:17.730Z,7.23
2019-05-02T15:37:45.947Z,7.87
2019-05-02T15:42:52.242Z,7.10
2019-05-02T15:45:23.770Z,7.45
2019-05-02T15:47:52.594Z,7.17
2019-05-02T15:50:24.418Z,7.70
2019-05-02T15:52:57.325Z,6.87
2019-05-02T15:55:23.173Z,7.85
2019-05-02T15:57:53.648Z,7.50
2019-05-02T16:00:26.792Z,7.65
2019-05-02T16:02:56.225Z,7.93
2019-05-02T16:05:25.352Z,7.97
2019-05-02T16:08:05.348Z,8.20
2019-05-02T16:10:24.088Z,8.80
2019-05-02T16:12:53.601Z,9.35
2019-05-02T16:15:26.302Z,8.95
2019-05-02T16:17:56.766Z,8.83
2019-05-02T16:20:27.392Z,10.43
2019-05-02T16:22:55.876Z,10.07
2019-05-02T16:25:25.952Z,9.60
2019-05-02T16:27:57.451Z,8.23
2019-05-02T16:30:25.034Z,6.90
2019-05-02T16:32:55.287Z,7.00
2019-05-02T16:35:28.345Z,7.73
2019-05-02T16:37:56.837Z,8.90
2019-05-02T16:40:29.774Z,11.47
2019-05-02T16:42:56.327Z,12.93
2019-05-02T16:45:25.119Z,13.23
2019-05-02T16:47:58.693Z,14.20
2019-05-02T16:50:27.490Z,13.77
2019-05-02T16:52:54.215Z,13.93
2019-05-02T16:55:26.493Z,14.17
2019-05-02T16:57:56.708Z,14.10
2019-05-02T17:00:25.556Z,14.20
2019-05-02T17:02:54.141Z,13.93
2019-05-02T17:05:22.623Z,15.33
2019-05-02T17:08:10.574Z,13.67
2019-05-02T17:10:42.221Z,13.77
2019-05-02T17:13:12.511Z,11.93
2019-05-02T17:15:42.759Z,13.30
2019-05-02T17:18:17.208Z,13.10
2019-05-02T17:20:41.672Z,13.20
2019-05-02T17:23:10.088Z,13.00
2019-05-02T17:25:38.582Z,12.90
2019-05-02T17:28:10.537Z,13.23
2019-05-02T17:30:38.815Z,12.60
2019-05-02T17:33:14.338Z,12.93
2019-05-02T17:35:43.390Z,12.20
2019-05-02T17:38:08.146Z,12.60
2019-05-02T17:40:36.643Z,12.67
2019-05-02T17:43:07.039Z,12.77
2019-05-02T17:45:38.556Z,12.83
2019-05-02T17:48:10.413Z,11.17
2019-05-02T17:50:59.223Z,12.17
2019-05-02T17:53:26.241Z,11.77
2019-05-02T17:55:54.841Z,11.00
2019-05-02T17:58:23.235Z,12.10
2019-05-02T18:00:56.180Z,13.03
2019-05-02T18:03:30.721Z,12.50
2019-05-02T18:05:53.680Z,11.83
2019-05-02T18:08:22.175Z,12.23
2019-05-02T18:10:56.094Z,11.93
2019-05-02T18:13:22.686Z,11.97
2019-05-02T18:15:53.247Z,12.23
2019-05-02T18:18:22.146Z,12.47
2019-05-02T18:20:52.720Z,12.30
2019-05-02T18:23:25.743Z,12.80
2019-05-02T18:25:52.562Z,12.77
2019-05-02T18:28:25.913Z,13.33
2019-05-02T18:30:52.465Z,13.80
2019-05-02T18:33:22.651Z,13.30
2019-05-02T18:35:52.612Z,14.17
2019-05-02T18:38:22.271Z,15.03
2019-05-02T18:40:52.418Z,15.50
2019-05-02T18:43:22.258Z,15.53
2019-05-02T18:45:51.555Z,15.43
2019-05-02T18:48:21.865Z,15.93
2019-05-02T18:50:52.434Z,17.30
2019-05-02T18:53:25.702Z,18.20
2019-05-02T18:55:51.877Z,18.47
2019-05-02T18:58:22.403Z,17.53
2019-05-02T19:00:52.004Z,18.63
2019-05-02T19:03:20.687Z,19.20
2019-05-02T19:05:51.484Z,20.13
2019-05-02T19:08:29.070Z,21.57
2019-05-02T19:11:02.491Z,22.77
2019-05-02T19:13:19.872Z,22.63
2019-05-02T19:15:49.017Z,21.53
2019-05-02T19:18:18.416Z,24.00
2019-05-02T19:20:57.457Z,22.13
2019-05-02T19:23:24.433Z,22.63
2019-05-02T19:25:52.988Z,24.47
2019-05-02T19:28:23.286Z,23.40
2019-05-02T19:30:52.098Z,24.07
2019-05-02T19:33:21.583Z,25.27
2019-05-02T19:35:52.574Z,23.63
2019-05-02T19:38:22.564Z,23.73
2019-05-02T19:40:52.040Z,24.80
2019-05-02T19:43:22.919Z,25.17
2019-05-02T19:45:53.921Z,24.23
2019-05-02T19:48:33.019Z,25.27
2019-05-02T19:51:02.378Z,24.10
2019-05-02T19:53:32.272Z,25.77
2019-05-02T19:56:03.068Z,25.90
2019-05-02T19:58:36.765Z,25.77
2019-05-02T20:03:34.909Z,26.27
2019-05-02T20:06:06.056Z,26.20
2019-05-02T20:08:33.844Z,25.37
2019-05-02T20:11:02.418Z,26.60
2019-05-02T20:13:32.717Z,26.13
2019-05-02T20:16:06.058Z,25.77
2019-05-02T20:18:42.542Z,26.20
2019-05-02T20:21:12.107Z,27.13
2019-05-02T20:23:39.727Z,26.77
2019-05-02T20:26:09.500Z,27.27
2019-05-02T20:28:38.495Z,27.67
2019-05-02T20:31:06.981Z,27.07
2019-05-02T20:33:35.388Z,27.23
2019-05-02T20:36:04.088Z,27.50
2019-05-02T20:38:32.615Z,27.77
2019-05-02T20:41:02.765Z,27.83
2019-05-02T20:43:32.300Z,27.93
2019-05-02T20:46:02.600Z,28.33
2019-05-02T20:48:32.263Z,28.20
2019-05-02T20:51:02.658Z,27.13
2019-05-02T20:53:34.120Z,27.53
2019-05-02T20:56:01.923Z,27.43
2019-05-02T20:58:32.496Z,27.80
2019-05-02T21:01:06.240Z,28.50
2019-05-02T21:03:32.029Z,28.47
2019-05-02T21:06:08.161Z,27.47
2019-05-02T21:08:54.473Z,27.30
2019-05-02T21:11:24.428Z,28.40
2019-05-02T21:13:52.954Z,30.03
2019-05-02T21:16:21.885Z,29.00
2019-05-02T21:18:50.335Z,29.57
2019-05-02T21:21:21.976Z,28.60
2019-05-02T21:23:52.806Z,29.00
2019-05-02T21:26:22.019Z,27.73
2019-05-02T21:28:52.188Z,29.63
2019-05-02T21:31:22.391Z,29.23
2019-05-02T21:33:51.976Z,29.20
2019-05-02T21:36:22.517Z,30.87
2019-05-02T21:38:52.153Z,30.73
2019-05-02T21:41:22.244Z,29.37
2019-05-02T21:43:51.878Z,30.30
2019-05-02T21:46:22.185Z,31.40
2019-05-02T21:48:52.463Z,31.70
2019-05-02T21:51:34.431Z,32.10
2019-05-02T21:54:22.705Z,33.00
2019-05-02T21:56:55.910Z,31.67
2019-05-02T21:59:24.456Z,33.43
2019-05-02T22:01:55.096Z,33.17
2019-05-02T22:04:23.661Z,33.13
2019-05-02T22:06:52.473Z,33.07
2019-05-02T22:09:23.079Z,35.13
2019-05-02T22:11:52.225Z,33.13
2019-05-02T22:14:22.323Z,34.10
2019-05-02T22:16:53.016Z,34.07
2019-05-02T22:19:21.205Z,34.63
2019-05-02T22:21:49.842Z,35.53
2019-05-02T22:24:18.469Z,34.47
2019-05-02T22:26:46.965Z,35.67
2019-05-02T22:29:15.375Z,33.77
2019-05-02T22:31:43.807Z,33.87
2019-05-02T22:34:12.962Z,35.70
2019-05-02T22:36:42.098Z,36.87
2019-05-02T22:39:22.237Z,36.73
2019-05-02T22:41:52.469Z,35.87
2019-05-02T22:44:21.846Z,37.03
2019-05-02T22:46:52.065Z,37.40
2019-05-02T22:49:22.479Z,36.80
2019-05-02T22:51:51.012Z,36.70
2019-05-02T22:54:27.636Z,38.13
2019-05-02T22:56:49.570Z,37.67
2019-05-02T22:59:17.978Z,39.03
2019-05-02T23:01:46.448Z,36.80
2019-05-02T23:04:14.958Z,38.60
2019-05-02T23:06:44.293Z,38.57
2019-05-02T23:09:13.032Z,38.07
2019-05-02T23:11:42.565Z,37.60
2019-05-02T23:14:11.316Z,38.53
2019-05-02T23:16:42.319Z,39.87
2019-05-02T23:19:12.035Z,37.87
2019-05-02T23:21:41.942Z,36.17
2019-05-02T23:24:14.475Z,37.30
2019-05-02T23:26:43.848Z,37.70
2019-05-02T23:29:13.985Z,38.43
2019-05-02T23:31:42.471Z,37.13
2019-05-02T23:34:11.016Z,38.10
2019-05-02T23:36:41.480Z,38.67
2019-05-02T23:39:12.301Z,38.53
2019-05-02T23:41:42.036Z,38.37
2019-05-02T23:44:12.288Z,38.93
2019-05-02T23:46:42.409Z,39.73
2019-05-02T23:49:12.821Z,39.50
2019-05-02T23:51:42.760Z,37.97
2019-05-02T23:54:12.849Z,39.37
2019-05-02T23:56:43.139Z,38.33
2019-05-02T23:59:12.036Z,37.50
